Yorkshire, Ohio
Current Conditions -  °F | °C
As of 10:35 PM on Wednesday 22 Oct 2014 (Local Time) from KVES Reporting Station
Overcast Overcast  
Wind Chill: 41°   Ceiling: 1800
Heat Index: 45°   Visibility: 10mi
Dew Point: 41°   Wind: 6mph
Humidity: 87%   Direction: 120°ESE
Pressure: 30.27"   Gusts: NA
Location:  40.33°N, 84.5°W
Report Text: KVES 230235Z AUTO 12005KT 10SM OVC018 07/05 A3027 RMK AO2
Loading
Personal Weather Stations






























Interactive Weather Map
Tropical Storm Tracking
New forecast layout! Learn more

10-Day Weather Forecast

Advertisements
Track Severe Weather on mobile